createdAt,value
2023-01-29T00:00:02.871Z,101561.09
2023-01-29T00:05:25.415Z,101561.81
2023-01-29T00:10:28.509Z,101551.94
2023-01-29T00:15:30.567Z,101541.00
2023-01-29T00:20:32.686Z,101539.63
2023-01-29T00:25:34.638Z,101526.97
2023-01-29T00:30:37.532Z,101527.44
2023-01-29T00:35:40.278Z,101528.63
2023-01-29T00:41:00.579Z,101525.38
2023-01-29T00:46:02.592Z,101518.00
2023-01-29T00:51:04.732Z,101522.91
2023-01-29T00:56:07.164Z,101505.88
2023-01-29T01:01:09.193Z,101501.94
2023-01-29T01:06:11.569Z,101497.19
2023-01-29T01:11:13.606Z,101489.13
2023-01-29T01:16:18.985Z,101489.56
2023-01-29T01:21:21.047Z,101484.94
2023-01-29T01:26:23.130Z,101490.78
2023-01-29T01:31:25.493Z,101469.47
2023-01-29T01:36:27.539Z,101484.06
2023-01-29T01:41:30.664Z,101493.34
2023-01-29T01:46:34.856Z,101501.28
2023-01-29T01:51:41.178Z,101508.16
2023-01-29T01:56:48.393Z,101512.44
2023-01-29T02:07:20.167Z,101510.34
2023-01-29T02:12:23.484Z,101512.00
2023-01-29T02:17:25.665Z,101492.56
2023-01-29T02:22:55.632Z,101485.38
2023-01-29T02:28:21.778Z,101492.03
2023-01-29T02:33:32.342Z,101490.25
2023-01-29T02:38:40.483Z,101477.75
2023-01-29T02:43:56.450Z,101465.06
2023-01-29T02:49:07.325Z,101467.59
2023-01-29T02:54:25.103Z,101463.97
2023-01-29T02:59:43.744Z,101469.56
2023-01-29T03:04:51.815Z,101466.97
2023-01-29T03:09:55.324Z,101447.53
2023-01-29T03:15:12.416Z,101448.13
2023-01-29T03:20:20.082Z,101453.13
2023-01-29T03:25:45.786Z,101446.94
2023-01-29T03:31:13.744Z,101444.97
2023-01-29T03:36:23.362Z,101437.88
2023-01-29T03:41:39.007Z,101427.19
2023-01-29T03:46:56.610Z,101428.69
2023-01-29T03:52:10.826Z,101442.41
2023-01-29T03:57:15.774Z,101431.81
2023-01-29T04:02:28.144Z,101417.69
2023-01-29T04:07:33.773Z,101415.81
2023-01-29T04:12:49.593Z,101401.72
2023-01-29T04:17:53.456Z,101384.91
2023-01-29T04:22:55.563Z,101392.66
2023-01-29T04:28:28.859Z,101395.13
2023-01-29T04:33:49.369Z,101396.59
2023-01-29T04:39:11.666Z,101389.44
2023-01-29T04:44:40.538Z,101382.41
2023-01-29T04:50:11.676Z,101390.25
2023-01-29T04:55:29.090Z,101392.88
2023-01-29T05:00:36.153Z,101390.03
2023-01-29T05:05:41.988Z,101369.06
2023-01-29T05:10:46.018Z,101356.06
2023-01-29T05:15:58.000Z,101346.31
2023-01-29T05:21:06.713Z,101340.13
2023-01-29T05:26:08.688Z,101341.03
2023-01-29T05:31:10.800Z,101336.63
2023-01-29T05:36:12.865Z,101333.19
2023-01-29T05:41:16.680Z,101312.00
2023-01-29T05:46:19.180Z,101301.53
2023-01-29T05:51:21.291Z,101330.28
2023-01-29T05:56:23.488Z,101329.38
2023-01-29T06:01:26.451Z,101330.19
2023-01-29T06:06:28.467Z,101318.84
2023-01-29T06:11:30.468Z,101318.84
2023-01-29T06:16:32.563Z,101319.66
2023-01-29T06:21:34.673Z,101324.06
2023-01-29T06:26:36.812Z,101341.47
2023-01-29T06:31:39.709Z,101327.50
2023-01-29T06:36:42.211Z,101331.75
2023-01-29T06:41:45.657Z,101323.84
2023-01-29T06:46:47.662Z,101328.25
2023-01-29T06:51:50.031Z,101326.44
2023-01-29T06:56:52.639Z,101327.34
2023-01-29T07:01:54.743Z,101345.63
2023-01-29T07:06:56.847Z,101345.53
2023-01-29T07:11:58.833Z,101340.31
2023-01-29T07:17:00.966Z,101345.63
2023-01-29T07:22:04.228Z,101360.47
2023-01-29T07:27:06.126Z,101343.09
2023-01-29T07:32:08.360Z,101354.44
2023-01-29T07:37:10.407Z,101344.00
2023-01-29T07:42:12.410Z,101338.75
2023-01-29T07:47:16.375Z,101342.28
2023-01-29T07:52:21.917Z,101325.88
2023-01-29T07:57:24.991Z,101315.44
2023-01-29T08:02:27.036Z,101320.66
2023-01-29T08:07:29.412Z,101321.63
2023-01-29T08:12:31.487Z,101321.69
2023-01-29T08:17:33.634Z,101319.97
2023-01-29T08:22:35.622Z,101319.25
2023-01-29T08:27:38.057Z,101323.56
2023-01-29T08:32:40.217Z,101328.19
2023-01-29T08:37:42.345Z,101330.88
2023-01-29T08:42:44.456Z,101319.88
2023-01-29T08:47:50.434Z,101311.31
2023-01-29T08:52:57.458Z,101306.78
2023-01-29T08:57:59.526Z,101273.97
2023-01-29T09:03:01.745Z,101268.69
2023-01-29T09:08:04.439Z,101274.34
2023-01-29T09:13:06.537Z,101262.63
2023-01-29T09:18:08.750Z,101255.94
2023-01-29T09:23:11.851Z,101251.50
2023-01-29T09:28:15.136Z,101235.22
2023-01-29T09:33:17.375Z,101233.81
2023-01-29T09:38:21.375Z,101231.22
2023-01-29T09:43:46.092Z,101231.25
2023-01-29T09:48:57.913Z,101236.47
2023-01-29T09:54:14.848Z,101228.34
2023-01-29T09:59:21.300Z,101224.63
2023-01-29T10:04:45.519Z,101230.47
2023-01-29T10:10:00.774Z,101220.69
2023-01-29T10:15:03.250Z,101217.19
2023-01-29T10:20:16.009Z,101208.13
2023-01-29T10:25:22.185Z,101203.91
2023-01-29T10:30:33.597Z,101207.72
2023-01-29T10:35:54.682Z,101202.22
2023-01-29T10:41:16.243Z,101199.25
2023-01-29T10:46:32.472Z,101192.28
2023-01-29T10:51:50.077Z,101179.19
2023-01-29T10:57:04.489Z,101175.44
2023-01-29T11:02:19.209Z,101165.19
2023-01-29T11:07:23.263Z,101171.03
2023-01-29T11:12:31.003Z,101166.88
2023-01-29T11:17:33.316Z,101160.88
2023-01-29T11:22:35.687Z,101155.63
2023-01-29T11:27:46.511Z,101151.25
2023-01-29T11:33:26.651Z,101149.47
2023-01-29T11:38:30.082Z,101144.88
2023-01-29T11:43:33.464Z,101124.38
2023-01-29T11:48:46.470Z,101122.47
2023-01-29T11:53:58.699Z,101106.31
2023-01-29T11:59:04.830Z,101097.25
2023-01-29T12:04:33.417Z,101088.19
2023-01-29T12:09:36.857Z,101085.19
2023-01-29T12:14:39.582Z,101072.56
2023-01-29T12:19:57.603Z,101068.75
2023-01-29T12:25:27.487Z,101064.91
2023-01-29T12:30:39.926Z,101056.50
2023-01-29T12:35:50.856Z,101050.09
2023-01-29T12:41:01.313Z,101039.16
2023-01-29T12:46:07.179Z,101031.84
2023-01-29T12:51:18.199Z,101031.66
2023-01-29T12:56:47.842Z,101027.69
2023-01-29T13:02:17.169Z,101014.94
2023-01-29T13:07:24.042Z,101019.03
2023-01-29T13:12:27.374Z,101024.03
2023-01-29T13:17:46.553Z,101014.00
2023-01-29T13:22:50.858Z,101027.81
2023-01-29T13:27:54.347Z,101031.03
2023-01-29T13:33:19.659Z,101014.91
2023-01-29T13:38:30.029Z,101036.53
2023-01-29T13:43:39.321Z,101044.19
2023-01-29T13:48:48.910Z,101043.09
2023-01-29T13:54:09.407Z,101017.16
2023-01-29T13:59:45.600Z,101021.38
2023-01-29T14:04:48.291Z,101020.34
2023-01-29T14:09:51.053Z,101011.28
2023-01-29T14:14:57.271Z,100993.41
2023-01-29T14:20:27.675Z,100978.09
2023-01-29T14:25:41.506Z,100983.94
2023-01-29T14:30:49.471Z,100985.41
2023-01-29T14:35:53.611Z,100992.19
2023-01-29T14:41:13.397Z,100996.34
2023-01-29T14:46:34.005Z,100988.31
2023-01-29T14:51:40.878Z,100971.38
2023-01-29T14:57:02.289Z,100966.81
2023-01-29T15:02:42.182Z,100966.59
2023-01-29T15:07:58.948Z,100966.38
2023-01-29T15:13:08.914Z,100979.34
2023-01-29T15:18:20.428Z,100979.97
2023-01-29T15:23:32.637Z,100975.44
2023-01-29T15:28:36.501Z,100962.06
2023-01-29T15:33:43.341Z,100968.03
2023-01-29T15:38:45.585Z,100972.16
2023-01-29T15:43:50.492Z,100983.34
2023-01-29T15:48:54.951Z,100991.88
2023-01-29T15:54:01.157Z,100986.50
2023-01-29T15:59:09.799Z,100980.22
2023-01-29T16:04:18.905Z,100976.53
2023-01-29T16:09:24.199Z,100972.00
2023-01-29T16:14:29.201Z,100956.94
2023-01-29T16:19:31.840Z,100951.44
2023-01-29T16:24:38.782Z,100948.56
2023-01-29T16:29:42.262Z,100933.56
2023-01-29T16:34:48.911Z,100916.78
2023-01-29T16:39:56.162Z,100931.56
2023-01-29T16:45:05.907Z,100937.53
2023-01-29T16:50:25.628Z,100921.66
2023-01-29T16:55:36.382Z,100934.59
2023-01-29T17:00:46.431Z,100909.97
2023-01-29T17:05:51.685Z,100907.25
2023-01-29T17:10:55.029Z,100893.13
2023-01-29T17:16:05.618Z,100892.09
2023-01-29T17:21:09.339Z,100884.13
2023-01-29T17:26:15.645Z,100878.78
2023-01-29T17:31:19.141Z,100871.63
2023-01-29T17:36:25.718Z,100862.72
2023-01-29T17:41:31.600Z,100869.66
2023-01-29T17:46:34.300Z,100854.66
2023-01-29T17:51:39.719Z,100837.06
2023-01-29T17:56:46.420Z,100826.38
2023-01-29T18:01:51.116Z,100830.72
2023-01-29T18:06:55.071Z,100819.25
2023-01-29T18:11:59.316Z,100821.81
2023-01-29T18:17:01.944Z,100819.16
2023-01-29T18:22:05.340Z,100824.28
2023-01-29T18:27:08.965Z,100815.47
2023-01-29T18:32:13.155Z,100818.00
2023-01-29T18:37:16.265Z,100803.97
2023-01-29T18:42:19.274Z,100802.97
2023-01-29T18:47:22.118Z,100797.66
2023-01-29T18:52:25.409Z,100787.97
2023-01-29T18:58:26.830Z,100780.06
2023-01-29T19:02:52.992Z,100779.06
2023-01-29T19:07:56.040Z,100766.78
2023-01-29T19:12:59.283Z,100759.81
2023-01-29T19:18:02.878Z,100758.91
2023-01-29T19:23:05.954Z,100754.47
2023-01-29T19:28:12.397Z,100748.28
2023-01-29T19:33:14.874Z,100743.00
2023-01-29T19:38:22.042Z,100734.19
2023-01-29T19:43:27.652Z,100725.41
2023-01-29T19:48:32.395Z,100717.53
2023-01-29T19:53:37.802Z,100702.63
2023-01-29T19:58:41.571Z,100704.28
2023-01-29T20:03:49.496Z,100693.81
2023-01-29T20:08:53.159Z,100692.03
2023-01-29T20:13:56.990Z,100685.91
2023-01-29T20:19:14.387Z,100686.75
2023-01-29T20:24:18.312Z,100671.88
2023-01-29T20:29:21.876Z,100671.88
2023-01-29T20:34:25.075Z,100662.22
2023-01-29T20:39:31.005Z,100659.56
2023-01-29T20:44:34.019Z,100653.44
2023-01-29T20:49:37.277Z,100637.69
2023-01-29T20:54:40.851Z,100630.72
2023-01-29T20:59:45.892Z,100623.69
2023-01-29T21:04:48.657Z,100620.19
2023-01-29T21:09:51.771Z,100613.22
2023-01-29T21:14:54.591Z,100614.91
2023-01-29T21:19:58.106Z,100593.97
2023-01-29T21:25:00.854Z,100593.91
2023-01-29T21:30:05.737Z,100584.28
2023-01-29T21:35:08.724Z,100574.66
2023-01-29T21:40:12.080Z,100560.63
2023-01-29T21:45:14.493Z,100550.16
2023-01-29T21:50:17.705Z,100540.53
2023-01-29T21:55:20.210Z,100528.31
2023-01-29T22:00:22.999Z,100509.13
2023-01-29T22:05:25.345Z,100509.94
2023-01-29T22:10:27.922Z,100497.72
2023-01-29T22:15:30.036Z,100478.50
2023-01-29T22:20:32.156Z,100469.72
2023-01-29T22:25:34.468Z,100460.09
2023-01-29T22:30:36.718Z,100449.66
2023-01-29T22:35:39.180Z,100444.38
2023-01-29T22:40:41.211Z,100436.47
2023-01-29T22:45:43.311Z,100428.66
2023-01-29T22:50:54.039Z,100411.19
2023-01-29T22:55:56.095Z,100393.72
2023-01-29T23:00:58.310Z,100390.22
2023-01-29T23:06:00.584Z,100394.50
2023-01-29T23:11:16.150Z,100389.31
2023-01-29T23:16:19.542Z,100377.97
2023-01-29T23:21:25.300Z,100360.50
2023-01-29T23:26:47.490Z,100353.47
2023-01-29T23:31:49.579Z,100358.72
2023-01-29T23:36:51.751Z,100341.25
2023-01-29T23:41:53.727Z,100327.31
2023-01-29T23:46:55.958Z,100312.44
2023-01-29T23:51:58.147Z,100312.44
2023-01-29T23:57:00.175Z,100300.22
